Time;durP1;ratioP1;P1;durP2;ratioP2;P2;SDS_P1;SDS_P2;PMS_P1;PMS_P2;Temp;Humidity;BMP_temperature;BMP_pressure;BME280_temperature;BME280_humidity;BME280_pressure;Samples;Min_cycle;Max_cycle;Signal;HPM_P1;HPM_P2
2023/07/02 00:01:44;;;;;;;6.55;4.28;;;;;;;;;;4982348;28;20467;-63
2023/07/02 00:04:13;;;;;;;6.53;4.10;;;;;;;;;;4984264;28;20476;-64
2023/07/02 00:06:41;;;;;;;6.45;3.75;;;;;;;;;;4983576;28;20469;-63
2023/07/02 00:09:08;;;;;;;5.55;4.05;;;;;;;;;;4987093;28;20436;-64
2023/07/02 00:11:37;;;;;;;6.90;3.80;;;;;;;;;;4984408;28;21024;-64
2023/07/02 00:14:04;;;;;;;7.07;4.30;;;;;;;;;;4980700;28;20466;-64
2023/07/02 00:16:31;;;;;;;6.88;4.50;;;;;;;;;;4985213;28;20885;-62
2023/07/02 00:18:59;;;;;;;5.53;4.07;;;;;;;;;;4985434;28;20422;-64
2023/07/02 00:21:27;;;;;;;5.50;4.20;;;;;;;;;;4981623;28;20448;-64
2023/07/02 00:23:56;;;;;;;10.38;4.47;;;;;;;;;;4985046;28;20430;-64
2023/07/02 00:26:23;;;;;;;7.68;4.30;;;;;;;;;;4977387;28;20451;-63
2023/07/02 00:28:52;;;;;;;6.55;4.30;;;;;;;;;;4980563;28;20435;-64
2023/07/02 00:31:19;;;;;;;6.70;4.35;;;;;;;;;;4984408;28;20500;-64
2023/07/02 00:33:46;;;;;;;5.60;4.10;;;;;;;;;;4982220;28;20420;-64
2023/07/02 00:36:14;;;;;;;11.40;4.88;;;;;;;;;;4981320;28;20917;-64
2023/07/02 00:38:42;;;;;;;8.38;4.43;;;;;;;;;;4985480;28;20526;-64
2023/07/02 00:41:09;;;;;;;8.30;4.50;;;;;;;;;;4988320;28;20485;-64
2023/07/02 00:43:36;;;;;;;9.00;4.13;;;;;;;;;;4981082;28;20526;-63
2023/07/02 00:46:05;;;;;;;8.38;4.70;;;;;;;;;;4980936;28;20886;-63
2023/07/02 00:48:32;;;;;;;8.23;4.63;;;;;;;;;;4985373;28;20430;-64
2023/07/02 00:50:59;;;;;;;8.82;4.75;;;;;;;;;;4985707;28;20422;-64
2023/07/02 00:53:26;;;;;;;8.93;4.70;;;;;;;;;;4983592;28;20451;-63
2023/07/02 00:55:53;;;;;;;9.25;4.90;;;;;;;;;;4983241;28;20411;-63
2023/07/02 00:58:20;;;;;;;8.00;4.32;;;;;;;;;;4982483;28;20421;-63
2023/07/02 01:00:47;;;;;;;8.77;4.68;;;;;;;;;;4980039;28;21107;-64
2023/07/02 01:03:16;;;;;;;6.75;4.20;;;;;;;;;;4981812;28;20440;-63
2023/07/02 01:05:43;;;;;;;10.00;4.50;;;;;;;;;;4980636;28;20420;-64
2023/07/02 01:08:11;;;;;;;7.07;4.47;;;;;;;;;;4982936;28;20423;-63
2023/07/02 01:10:38;;;;;;;9.07;4.70;;;;;;;;;;4985156;28;20905;-64
2023/07/02 01:13:08;;;;;;;9.45;4.93;;;;;;;;;;4979498;28;20423;-63
2023/07/02 01:15:35;;;;;;;8.80;4.68;;;;;;;;;;4982333;28;20950;-64
2023/07/02 01:18:03;;;;;;;10.25;4.90;;;;;;;;;;4983080;28;20457;-64
2023/07/02 01:20:32;;;;;;;7.53;4.72;;;;;;;;;;4981606;28;20435;-64
2023/07/02 01:23:02;;;;;;;11.52;5.07;;;;;;;;;;4982882;28;20477;-63
2023/07/02 01:25:29;;;;;;;8.90;4.80;;;;;;;;;;4981777;28;20852;-64
2023/07/02 01:27:58;;;;;;;9.20;5.03;;;;;;;;;;4979939;28;20428;-64
2023/07/02 01:30:25;;;;;;;8.50;5.03;;;;;;;;;;4981636;28;20488;-64
2023/07/02 01:32:53;;;;;;;8.90;5.20;;;;;;;;;;4982769;28;20525;-63
2023/07/02 01:35:20;;;;;;;10.98;5.35;;;;;;;;;;4980880;28;20511;-64
2023/07/02 01:37:48;;;;;;;12.98;5.32;;;;;;;;;;4983868;28;20962;-63
2023/07/02 01:40:15;;;;;;;8.63;5.30;;;;;;;;;;4988947;28;20419;-63
2023/07/02 01:42:42;;;;;;;10.15;5.75;;;;;;;;;;4981395;28;20423;-64
2023/07/02 01:45:10;;;;;;;9.53;5.30;;;;;;;;;;4986578;28;20984;-64
2023/07/02 01:47:37;;;;;;;10.27;5.35;;;;;;;;;;4980945;28;21007;-64
2023/07/02 01:50:05;;;;;;;12.70;5.57;;;;;;;;;;4983348;28;20953;-64
2023/07/02 01:52:33;;;;;;;10.80;5.60;;;;;;;;;;4978890;28;20432;-63
2023/07/02 01:55:01;;;;;;;10.87;5.90;;;;;;;;;;4983837;28;20513;-64
2023/07/02 01:57:30;;;;;;;12.52;5.63;;;;;;;;;;4980265;28;20420;-63
2023/07/02 01:59:57;;;;;;;9.52;5.25;;;;;;;;;;4983542;28;20426;-63
2023/07/02 02:02:24;;;;;;;12.57;5.45;;;;;;;;;;4979929;28;20416;-63
2023/07/02 02:04:51;;;;;;;9.03;5.33;;;;;;;;;;4984174;28;20977;-64
2023/07/02 02:07:18;;;;;;;13.40;5.55;;;;;;;;;;4985765;28;20492;-63
2023/07/02 02:09:45;;;;;;;9.80;5.40;;;;;;;;;;4985898;28;20422;-63
2023/07/02 02:12:14;;;;;;;11.93;5.80;;;;;;;;;;4980239;28;20498;-63
2023/07/02 02:14:41;;;;;;;9.18;5.32;;;;;;;;;;4982258;28;20422;-63
2023/07/02 02:17:08;;;;;;;10.82;5.93;;;;;;;;;;4981012;28;20424;-63
2023/07/02 02:19:35;;;;;;;10.95;5.90;;;;;;;;;;4981352;28;20432;-63
2023/07/02 02:22:02;;;;;;;12.60;6.20;;;;;;;;;;4987697;28;20839;-64
2023/07/02 02:24:29;;;;;;;14.00;6.20;;;;;;;;;;4982380;28;20439;-61
2023/07/02 02:26:56;;;;;;;12.52;5.88;;;;;;;;;;4981564;28;20895;-61
2023/07/02 02:29:25;;;;;;;10.55;6.10;;;;;;;;;;4978828;28;20424;-61
2023/07/02 02:31:52;;;;;;;12.80;6.88;;;;;;;;;;4984859;28;20501;-59
2023/07/02 02:34:19;;;;;;;14.10;6.43;;;;;;;;;;4981349;28;20421;-62
2023/07/02 02:36:46;;;;;;;15.07;6.82;;;;;;;;;;4983035;28;20907;-63
2023/07/02 02:39:14;;;;;;;12.18;6.70;;;;;;;;;;4986180;28;20423;-63
2023/07/02 02:41:41;;;;;;;15.80;7.57;;;;;;;;;;4981276;28;20426;-62
2023/07/02 02:44:08;;;;;;;13.70;7.30;;;;;;;;;;4979560;28;20432;-62
2023/07/02 02:46:36;;;;;;;15.07;7.53;;;;;;;;;;4982049;28;20418;-62
2023/07/02 02:49:03;;;;;;;13.82;7.85;;;;;;;;;;4986505;28;20958;-63
2023/07/02 02:51:30;;;;;;;19.80;7.97;;;;;;;;;;4987054;28;20423;-62
2023/07/02 02:53:57;;;;;;;14.10;7.70;;;;;;;;;;4986151;28;20416;-62
2023/07/02 02:56:24;;;;;;;16.73;8.23;;;;;;;;;;4983420;28;20424;-62
2023/07/02 02:58:51;;;;;;;17.67;8.02;;;;;;;;;;4983834;28;20867;-62
2023/07/02 03:01:18;;;;;;;16.75;8.25;;;;;;;;;;4985598;28;20472;-63
2023/07/02 03:03:46;;;;;;;18.33;8.70;;;;;;;;;;4983808;28;20416;-62
2023/07/02 03:06:14;;;;;;;15.85;8.10;;;;;;;;;;4983018;28;20420;-63
2023/07/02 03:08:41;;;;;;;19.15;9.75;;;;;;;;;;4990321;28;20920;-62
2023/07/02 03:11:08;;;;;;;15.70;9.25;;;;;;;;;;4986206;28;20422;-62
2023/07/02 03:13:35;;;;;;;17.37;9.70;;;;;;;;;;4985074;28;20516;-63
2023/07/02 03:16:02;;;;;;;18.27;9.57;;;;;;;;;;4984194;28;20485;-62
2023/07/02 03:18:29;;;;;;;18.20;9.50;;;;;;;;;;4982481;28;20422;-62
2023/07/02 03:20:57;;;;;;;18.35;9.70;;;;;;;;;;4983112;28;20432;-62
2023/07/02 03:23:24;;;;;;;17.93;10.00;;;;;;;;;;4982965;28;20450;-62
2023/07/02 03:25:51;;;;;;;18.77;9.82;;;;;;;;;;4974320;28;20435;-62
2023/07/02 03:28:18;;;;;;;19.75;10.70;;;;;;;;;;4985563;28;20429;-62
2023/07/02 03:30:45;;;;;;;19.40;10.25;;;;;;;;;;4982450;28;20478;-62
2023/07/02 03:33:12;;;;;;;22.25;10.70;;;;;;;;;;4988180;28;20422;-62
2023/07/02 03:35:39;;;;;;;20.50;10.02;;;;;;;;;;4984815;28;20506;-61
2023/07/02 03:38:08;;;;;;;22.55;11.18;;;;;;;;;;4982388;28;20706;-62
2023/07/02 03:40:35;;;;;;;22.02;10.40;;;;;;;;;;4986567;28;20479;-63
2023/07/02 03:43:02;;;;;;;20.77;10.45;;;;;;;;;;4984455;28;20426;-62
2023/07/02 03:45:29;;;;;;;20.23;10.57;;;;;;;;;;4983461;28;20841;-62
2023/07/02 03:47:56;;;;;;;18.67;11.20;;;;;;;;;;4981997;28;20432;-61
2023/07/02 03:50:23;;;;;;;19.60;10.63;;;;;;;;;;4982454;28;20428;-61
2023/07/02 03:52:50;;;;;;;23.33;11.10;;;;;;;;;;4986277;28;20842;-62
2023/07/02 03:55:18;;;;;;;18.10;10.50;;;;;;;;;;4981860;28;20419;-62
2023/07/02 03:57:45;;;;;;;21.35;10.70;;;;;;;;;;4982845;28;20903;-61
2023/07/02 04:00:12;;;;;;;23.33;11.40;;;;;;;;;;4984363;28;20426;-62
2023/07/02 04:02:39;;;;;;;22.95;11.00;;;;;;;;;;4985285;28;20921;-62
2023/07/02 04:05:06;;;;;;;23.58;11.57;;;;;;;;;;4982319;28;20428;-62
2023/07/02 04:07:33;;;;;;;21.55;11.52;;;;;;;;;;4978278;28;20418;-61
2023/07/02 04:10:01;;;;;;;20.83;11.33;;;;;;;;;;4989208;28;20414;-62
2023/07/02 04:12:29;;;;;;;25.02;11.57;;;;;;;;;;4981580;28;20535;-62
2023/07/02 04:14:56;;;;;;;22.98;11.00;;;;;;;;;;4986821;28;20480;-62
2023/07/02 04:17:23;;;;;;;22.80;11.85;;;;;;;;;;4985164;28;20830;-62
2023/07/02 04:19:50;;;;;;;23.08;12.05;;;;;;;;;;4982125;28;20479;-62
2023/07/02 04:22:18;;;;;;;23.02;11.25;;;;;;;;;;4982041;28;20466;-62
2023/07/02 04:24:48;;;;;;;21.08;11.75;;;;;;;;;;4984329;28;20466;-60
2023/07/02 04:27:17;;;;;;;21.17;11.20;;;;;;;;;;4983617;28;20418;-61
2023/07/02 04:29:45;;;;;;;26.27;12.60;;;;;;;;;;4981344;28;20912;-62
2023/07/02 04:32:12;;;;;;;21.80;12.15;;;;;;;;;;4982366;28;20428;-61
2023/07/02 04:34:39;;;;;;;24.17;12.73;;;;;;;;;;4986057;28;20495;-62
2023/07/02 04:37:06;;;;;;;23.60;12.90;;;;;;;;;;4982307;28;20427;-62
2023/07/02 04:39:33;;;;;;;22.88;12.52;;;;;;;;;;4987298;28;20970;-62
2023/07/02 04:42:00;;;;;;;24.35;13.75;;;;;;;;;;4981291;28;20416;-62
2023/07/02 04:44:29;;;;;;;24.25;12.55;;;;;;;;;;4981764;28;20499;-62
2023/07/02 04:46:59;;;;;;;25.05;13.10;;;;;;;;;;4983583;28;20876;-60
2023/07/02 04:49:26;;;;;;;25.90;13.35;;;;;;;;;;4982388;28;20418;-62
2023/07/02 04:51:54;;;;;;;24.13;13.20;;;;;;;;;;4980695;28;20459;-62
2023/07/02 04:54:21;;;;;;;24.67;13.32;;;;;;;;;;4985452;28;20907;-62
2023/07/02 04:56:48;;;;;;;27.63;13.68;;;;;;;;;;4980763;28;20818;-62
2023/07/02 04:59:16;;;;;;;27.42;13.55;;;;;;;;;;4980880;28;20433;-62
2023/07/02 05:01:44;;;;;;;22.53;13.63;;;;;;;;;;4982851;28;20472;-63
2023/07/02 05:04:13;;;;;;;24.98;13.50;;;;;;;;;;4981083;28;20424;-62
2023/07/02 05:06:40;;;;;;;24.73;13.55;;;;;;;;;;4981624;28;20424;-63
2023/07/02 05:09:06;;;;;;;25.73;13.80;;;;;;;;;;4987693;28;20454;-62
2023/07/02 05:11:33;;;;;;;24.15;13.85;;;;;;;;;;4984088;28;20422;-63
2023/07/02 05:14:00;;;;;;;26.67;14.17;;;;;;;;;;4980804;28;20469;-63
2023/07/02 05:16:28;;;;;;;27.50;14.80;;;;;;;;;;4982417;28;20783;-64
2023/07/02 05:18:55;;;;;;;26.17;14.63;;;;;;;;;;4982573;28;20441;-63
2023/07/02 05:21:23;;;;;;;24.98;14.10;;;;;;;;;;4980257;28;20420;-64
2023/07/02 05:23:50;;;;;;;24.67;14.02;;;;;;;;;;4981916;28;20414;-63
2023/07/02 05:26:17;;;;;;;26.55;14.57;;;;;;;;;;4982580;28;20434;-64
2023/07/02 05:28:45;;;;;;;25.65;14.10;;;;;;;;;;4980949;28;20436;-62
2023/07/02 05:31:12;;;;;;;27.40;14.93;;;;;;;;;;4980102;28;20488;-63
2023/07/02 05:33:40;;;;;;;27.05;14.63;;;;;;;;;;4979921;28;20424;-61
2023/07/02 05:36:07;;;;;;;28.23;15.27;;;;;;;;;;4981663;28;20415;-60
2023/07/02 05:38:35;;;;;;;27.02;14.57;;;;;;;;;;4990250;28;20972;-62
2023/07/02 05:41:03;;;;;;;29.77;15.27;;;;;;;;;;4987214;28;20479;-63
2023/07/02 05:43:30;;;;;;;28.50;15.60;;;;;;;;;;4982275;28;20429;-63
2023/07/02 05:46:00;;;;;;;30.58;15.73;;;;;;;;;;4980830;28;20459;-62
2023/07/02 05:48:27;;;;;;;29.10;14.88;;;;;;;;;;4980152;28;20431;-62
2023/07/02 05:50:54;;;;;;;33.05;15.55;;;;;;;;;;4971409;28;20427;-62
2023/07/02 05:53:21;;;;;;;30.48;15.35;;;;;;;;;;4973542;28;20547;-66
2023/07/02 05:55:49;;;;;;;28.47;15.60;;;;;;;;;;4980579;28;20422;-65
2023/07/02 05:58:16;;;;;;;29.65;15.80;;;;;;;;;;4980099;28;20481;-65
2023/07/02 06:00:48;;;;;;;26.30;14.98;;;;;;;;;;4987489;28;20847;-62
2023/07/02 06:03:19;;;;;;;31.23;16.20;;;;;;;;;;4980187;28;20856;-62
2023/07/02 06:05:47;;;;;;;31.80;17.08;;;;;;;;;;4981723;28;20538;-65
2023/07/02 06:08:14;;;;;;;30.63;16.63;;;;;;;;;;4983075;28;20852;-64
2023/07/02 06:10:41;;;;;;;30.80;15.93;;;;;;;;;;4984037;28;20462;-65
2023/07/02 06:13:09;;;;;;;29.40;15.82;;;;;;;;;;4981024;28;20422;-65
2023/07/02 06:15:36;;;;;;;29.17;15.82;;;;;;;;;;4979125;28;20424;-63
2023/07/02 06:18:03;;;;;;;28.30;15.68;;;;;;;;;;4986461;28;20802;-62
2023/07/02 06:20:30;;;;;;;27.13;16.03;;;;;;;;;;4979907;28;20474;-63
2023/07/02 06:22:57;;;;;;;30.85;16.80;;;;;;;;;;4981850;28;20500;-62
2023/07/02 06:25:24;;;;;;;31.58;16.13;;;;;;;;;;4984921;28;20501;-62
2023/07/02 06:27:54;;;;;;;28.48;16.55;;;;;;;;;;4985760;28;20426;-62
2023/07/02 06:30:22;;;;;;;33.53;17.58;;;;;;;;;;4984011;28;20424;-62
2023/07/02 06:32:49;;;;;;;32.38;17.20;;;;;;;;;;4983011;28;20431;-62
2023/07/02 06:35:16;;;;;;;30.77;16.90;;;;;;;;;;4975029;28;20438;-63
2023/07/02 06:37:43;;;;;;;31.02;15.90;;;;;;;;;;4986896;28;20479;-62
2023/07/02 06:40:11;;;;;;;27.60;15.70;;;;;;;;;;4990029;28;20895;-62
2023/07/02 06:42:38;;;;;;;31.10;16.33;;;;;;;;;;4980010;28;20422;-61
2023/07/02 06:45:05;;;;;;;27.63;15.47;;;;;;;;;;4985248;28;20524;-62
2023/07/02 06:47:33;;;;;;;28.23;15.45;;;;;;;;;;4983024;28;20416;-62
2023/07/02 06:50:00;;;;;;;28.88;15.30;;;;;;;;;;4982952;28;20419;-62
2023/07/02 06:52:27;;;;;;;28.42;15.20;;;;;;;;;;4984823;28;20468;-62
2023/07/02 06:54:54;;;;;;;26.35;14.32;;;;;;;;;;4983781;28;20428;-61
2023/07/02 06:57:23;;;;;;;29.67;14.30;;;;;;;;;;4986295;28;20774;-62
2023/07/02 06:59:51;;;;;;;26.55;13.02;;;;;;;;;;4983274;28;20449;-62
2023/07/02 07:02:18;;;;;;;24.55;12.90;;;;;;;;;;4981579;28;20486;-62
2023/07/02 07:04:46;;;;;;;25.02;13.23;;;;;;;;;;4982661;28;20431;-61
2023/07/02 07:07:13;;;;;;;23.88;12.48;;;;;;;;;;4986210;28;20429;-63
2023/07/02 07:09:40;;;;;;;26.23;12.20;;;;;;;;;;4988521;28;20790;-61
2023/07/02 07:12:08;;;;;;;24.15;12.25;;;;;;;;;;4985386;28;20476;-62
2023/07/02 07:14:35;;;;;;;25.58;12.30;;;;;;;;;;4985641;28;21116;-64
2023/07/02 07:17:02;;;;;;;23.02;12.40;;;;;;;;;;4984704;28;20472;-63
2023/07/02 07:19:29;;;;;;;20.40;11.80;;;;;;;;;;4986145;28;20861;-63
2023/07/02 07:21:58;;;;;;;26.27;12.57;;;;;;;;;;4984693;28;20415;-65
2023/07/02 07:24:25;;;;;;;21.33;12.07;;;;;;;;;;4983916;28;20505;-64
2023/07/02 07:26:52;;;;;;;22.38;11.88;;;;;;;;;;4984521;28;20442;-64
2023/07/02 07:29:19;;;;;;;24.05;11.75;;;;;;;;;;4983347;28;20426;-64
2023/07/02 07:31:46;;;;;;;24.92;11.98;;;;;;;;;;4986286;28;20489;-64
2023/07/02 07:34:13;;;;;;;24.83;11.80;;;;;;;;;;4985729;28;20509;-64
2023/07/02 07:36:40;;;;;;;25.38;12.10;;;;;;;;;;4987257;28;20420;-63
2023/07/02 07:39:09;;;;;;;19.67;11.13;;;;;;;;;;4988953;28;20418;-63
2023/07/02 07:41:36;;;;;;;22.40;12.07;;;;;;;;;;4983022;28;20427;-63
2023/07/02 07:44:03;;;;;;;19.80;10.93;;;;;;;;;;4982470;28;20428;-62
2023/07/02 07:46:30;;;;;;;21.48;10.88;;;;;;;;;;4983821;28;20434;-63
2023/07/02 07:48:57;;;;;;;23.23;11.07;;;;;;;;;;4983908;28;20965;-63
2023/07/02 07:51:24;;;;;;;20.33;9.95;;;;;;;;;;4981961;28;20483;-63
2023/07/02 07:53:51;;;;;;;20.42;10.32;;;;;;;;;;4985730;28;20469;-64
2023/07/02 07:56:19;;;;;;;21.27;10.98;;;;;;;;;;4987448;28;20922;-64
2023/07/02 07:58:46;;;;;;;21.77;10.35;;;;;;;;;;4982967;28;20420;-65
2023/07/02 08:01:14;;;;;;;21.00;10.43;;;;;;;;;;4981225;28;20844;-63
2023/07/02 08:03:41;;;;;;;24.65;11.20;;;;;;;;;;4984731;28;20418;-63
2023/07/02 08:06:08;;;;;;;24.00;10.65;;;;;;;;;;4983084;28;20435;-65
2023/07/02 08:08:35;;;;;;;22.27;11.07;;;;;;;;;;4986853;28;20478;-64
2023/07/02 08:11:02;;;;;;;20.05;10.80;;;;;;;;;;4987054;28;20434;-64
2023/07/02 08:13:30;;;;;;;23.70;11.27;;;;;;;;;;4986107;28;20435;-63
2023/07/02 08:15:57;;;;;;;22.60;11.15;;;;;;;;;;4983084;28;20879;-62
2023/07/02 08:18:24;;;;;;;25.30;11.13;;;;;;;;;;4984794;28;20432;-61
2023/07/02 08:20:51;;;;;;;21.73;11.43;;;;;;;;;;4989351;28;20488;-60
2023/07/02 08:23:18;;;;;;;21.17;11.27;;;;;;;;;;4984920;28;20433;-62
2023/07/02 08:25:45;;;;;;;23.42;11.00;;;;;;;;;;4981229;28;20474;-63
2023/07/02 08:28:12;;;;;;;21.52;10.40;;;;;;;;;;4982151;28;20768;-61
2023/07/02 08:30:40;;;;;;;20.80;9.95;;;;;;;;;;4983247;28;20426;-62
2023/07/02 08:33:07;;;;;;;21.00;9.50;;;;;;;;;;4987143;28;20761;-62
2023/07/02 08:35:34;;;;;;;21.17;10.18;;;;;;;;;;4986799;28;20492;-62
2023/07/02 08:38:02;;;;;;;20.65;9.90;;;;;;;;;;4987055;28;20569;-65
2023/07/02 08:40:29;;;;;;;23.27;10.05;;;;;;;;;;4983106;28;20426;-61
2023/07/02 08:42:56;;;;;;;19.15;9.93;;;;;;;;;;4983107;28;20422;-65
2023/07/02 08:45:25;;;;;;;18.30;9.57;;;;;;;;;;4980721;28;21089;-64
2023/07/02 08:47:56;;;;;;;20.67;9.15;;;;;;;;;;4980496;28;20455;-66
2023/07/02 08:50:23;;;;;;;16.52;8.70;;;;;;;;;;4980611;28;20770;-62
2023/07/02 08:52:50;;;;;;;22.15;9.30;;;;;;;;;;4981198;28;20420;-64
2023/07/02 08:55:17;;;;;;;16.52;8.32;;;;;;;;;;4983357;28;20428;-64
2023/07/02 08:57:49;;;;;;;17.73;8.43;;;;;;;;;;4984483;28;20418;-63
2023/07/02 09:00:16;;;;;;;16.48;8.27;;;;;;;;;;4982844;28;20507;-63
2023/07/02 09:02:44;;;;;;;14.60;7.93;;;;;;;;;;4982031;28;20423;-64
2023/07/02 09:05:12;;;;;;;18.45;8.30;;;;;;;;;;4980321;28;20431;-64
2023/07/02 09:07:46;;;;;;;16.23;8.02;;;;;;;;;;4983516;28;20430;-63
2023/07/02 09:10:13;;;;;;;17.13;8.23;;;;;;;;;;4981509;28;20509;-66
2023/07/02 09:12:40;;;;;;;16.30;7.55;;;;;;;;;;4982108;28;20422;-63
2023/07/02 09:15:08;;;;;;;18.38;7.85;;;;;;;;;;4981121;28;20500;-64
2023/07/02 09:17:35;;;;;;;16.05;7.80;;;;;;;;;;4977451;28;20428;-64
2023/07/02 09:20:04;;;;;;;13.07;7.47;;;;;;;;;;4984486;28;20429;-64
2023/07/02 09:22:33;;;;;;;13.90;7.38;;;;;;;;;;4985999;28;20478;-64
2023/07/02 09:25:00;;;;;;;15.27;7.30;;;;;;;;;;4983226;28;20428;-65
2023/07/02 09:27:37;;;;;;;15.83;8.27;;;;;;;;;;4983942;28;20433;-64
2023/07/02 09:30:08;;;;;;;19.73;8.00;;;;;;;;;;4985358;28;20528;-64
2023/07/02 09:32:35;;;;;;;16.23;8.23;;;;;;;;;;4984356;28;20419;-65
2023/07/02 09:35:04;;;;;;;18.20;8.02;;;;;;;;;;4986296;28;20780;-65
2023/07/02 09:37:33;;;;;;;16.55;8.60;;;;;;;;;;4987067;28;20422;-64
2023/07/02 09:40:00;;;;;;;17.45;8.60;;;;;;;;;;4985013;28;20422;-62
2023/07/02 09:42:27;;;;;;;15.55;8.05;;;;;;;;;;4979824;28;20424;-62
2023/07/02 09:44:56;;;;;;;17.73;8.10;;;;;;;;;;4980545;28;20430;-62
2023/07/02 09:47:23;;;;;;;19.52;8.70;;;;;;;;;;4985195;28;20476;-62
2023/07/02 09:49:51;;;;;;;16.88;8.52;;;;;;;;;;4983823;28;20487;-62
2023/07/02 09:52:18;;;;;;;15.85;8.60;;;;;;;;;;4979152;28;20471;-62
2023/07/02 09:54:47;;;;;;;15.18;7.72;;;;;;;;;;4983512;28;20454;-62
2023/07/02 09:57:14;;;;;;;18.47;8.57;;;;;;;;;;4979829;28;20447;-64
2023/07/02 09:59:42;;;;;;;15.82;7.80;;;;;;;;;;4982067;28;20422;-64
2023/07/02 10:02:10;;;;;;;18.45;8.20;;;;;;;;;;4980628;28;20423;-63
2023/07/02 10:04:43;;;;;;;17.25;8.18;;;;;;;;;;4979313;28;20845;-62
2023/07/02 10:07:10;;;;;;;15.52;8.20;;;;;;;;;;4981798;28;20548;-62
2023/07/02 10:09:38;;;;;;;18.05;8.70;;;;;;;;;;4980827;28;20411;-62
2023/07/02 10:12:18;;;;;;;15.60;8.20;;;;;;;;;;4982568;28;20422;-63
2023/07/02 10:14:45;;;;;;;19.10;8.80;;;;;;;;;;4979656;28;20427;-62
2023/07/02 10:17:24;;;;;;;17.88;8.60;;;;;;;;;;4978888;28;21241;-63
2023/07/02 10:19:52;;;;;;;19.25;8.70;;;;;;;;;;4980142;28;20464;-63
2023/07/02 10:22:19;;;;;;;17.80;8.57;;;;;;;;;;4970198;28;20499;-63
2023/07/02 10:24:53;;;;;;;17.15;9.05;;;;;;;;;;4970018;28;20455;-63
2023/07/02 10:27:22;;;;;;;19.97;8.93;;;;;;;;;;4970886;28;20530;-62
2023/07/02 10:29:52;;;;;;;17.17;8.70;;;;;;;;;;4978514;28;20458;-62
2023/07/02 10:32:28;;;;;;;16.65;8.30;;;;;;;;;;4978933;28;20833;-62
2023/07/02 10:34:55;;;;;;;17.98;8.57;;;;;;;;;;4978206;28;20493;-62
2023/07/02 10:37:22;;;;;;;17.48;8.77;;;;;;;;;;4981290;28;20425;-62
2023/07/02 10:39:49;;;;;;;15.82;8.30;;;;;;;;;;4989321;28;20418;-62
2023/07/02 10:42:16;;;;;;;20.20;8.88;;;;;;;;;;4976984;28;20416;-62
2023/07/02 10:44:52;;;;;;;16.25;8.50;;;;;;;;;;4979908;28;20417;-62
2023/07/02 10:47:19;;;;;;;18.33;9.15;;;;;;;;;;4980201;28;20442;-62
2023/07/02 10:49:46;;;;;;;17.70;8.60;;;;;;;;;;4978576;28;20920;-62
2023/07/02 10:52:13;;;;;;;19.17;9.32;;;;;;;;;;4978621;28;20458;-64
2023/07/02 10:54:41;;;;;;;19.70;9.75;;;;;;;;;;4982947;28;20481;-64
2023/07/02 10:57:08;;;;;;;15.32;8.68;;;;;;;;;;4983459;28;20422;-66
2023/07/02 10:59:35;;;;;;;21.02;10.43;;;;;;;;;;4984590;28;20955;-67
2023/07/02 11:02:04;;;;;;;29.25;12.65;;;;;;;;;;4983777;28;20511;-67
2023/07/02 11:04:31;;;;;;;16.73;8.55;;;;;;;;;;4985123;28;20426;-68
2023/07/02 11:06:59;;;;;;;19.83;8.52;;;;;;;;;;4983447;28;20437;-68
2023/07/02 11:09:26;;;;;;;15.38;8.40;;;;;;;;;;4986947;28;20512;-65
2023/07/02 11:11:53;;;;;;;16.77;8.13;;;;;;;;;;4985420;28;20457;-63
2023/07/02 11:14:30;;;;;;;17.50;8.68;;;;;;;;;;4981978;28;20428;-63
2023/07/02 11:16:57;;;;;;;15.65;8.52;;;;;;;;;;4979405;28;20424;-63
2023/07/02 11:19:26;;;;;;;16.17;7.80;;;;;;;;;;4990384;28;20538;-63
2023/07/02 11:21:53;;;;;;;16.95;7.85;;;;;;;;;;4985096;28;20481;-62
2023/07/02 11:24:28;;;;;;;14.63;7.43;;;;;;;;;;4984084;28;20426;-63
2023/07/02 11:26:55;;;;;;;17.30;8.20;;;;;;;;;;4983861;28;20499;-64
2023/07/02 11:29:22;;;;;;;18.23;8.13;;;;;;;;;;4979651;28;20482;-63
2023/07/02 11:31:49;;;;;;;19.02;8.40;;;;;;;;;;4983138;28;20460;-63
2023/07/02 11:34:16;;;;;;;16.25;7.93;;;;;;;;;;4981750;28;20461;-63
2023/07/02 11:36:45;;;;;;;17.77;7.75;;;;;;;;;;4982216;28;20428;-63
2023/07/02 11:39:13;;;;;;;13.48;7.50;;;;;;;;;;4988813;28;20430;-62
2023/07/02 11:41:41;;;;;;;15.77;6.87;;;;;;;;;;4981893;28;20487;-62
2023/07/02 11:44:08;;;;;;;14.18;6.65;;;;;;;;;;4982458;28;20485;-64
2023/07/02 11:46:35;;;;;;;12.77;6.60;;;;;;;;;;4983764;28;20422;-63
2023/07/02 11:49:04;;;;;;;13.30;6.70;;;;;;;;;;4989543;28;20422;-63
2023/07/02 11:51:31;;;;;;;15.80;7.00;;;;;;;;;;4981134;28;20482;-63
2023/07/02 11:54:00;;;;;;;17.20;7.32;;;;;;;;;;4982849;28;20418;-63
2023/07/02 11:56:27;;;;;;;13.82;7.45;;;;;;;;;;4983214;28;20430;-63
2023/07/02 11:58:54;;;;;;;14.68;6.63;;;;;;;;;;4981734;28;20430;-62
2023/07/02 12:01:21;;;;;;;15.77;6.78;;;;;;;;;;4983219;28;20418;-62
2023/07/02 12:03:48;;;;;;;13.98;6.60;;;;;;;;;;4981611;28;20755;-62
2023/07/02 12:06:15;;;;;;;17.88;7.10;;;;;;;;;;4980858;28;20539;-63
2023/07/02 12:08:42;;;;;;;14.27;6.65;;;;;;;;;;4986273;28;20431;-63
2023/07/02 12:11:12;;;;;;;12.30;7.10;;;;;;;;;;4982950;28;20458;-63
2023/07/02 12:13:39;;;;;;;12.07;6.80;;;;;;;;;;4983817;28;20468;-62
2023/07/02 12:16:06;;;;;;;17.48;6.50;;;;;;;;;;4980955;28;20420;-62
2023/07/02 12:18:33;;;;;;;11.63;6.32;;;;;;;;;;4983879;28;20502;-62
2023/07/02 12:21:00;;;;;;;14.80;6.22;;;;;;;;;;4978257;28;20887;-62
2023/07/02 12:23:27;;;;;;;12.70;6.15;;;;;;;;;;4982133;28;20531;-61
2023/07/02 12:25:54;;;;;;;12.52;5.90;;;;;;;;;;4980668;28;20882;-62
2023/07/02 12:28:22;;;;;;;16.20;6.87;;;;;;;;;;4982174;28;20434;-62
2023/07/02 12:30:49;;;;;;;12.02;5.93;;;;;;;;;;4982620;28;20481;-62
2023/07/02 12:33:16;;;;;;;11.82;6.18;;;;;;;;;;4982960;28;20764;-63
2023/07/02 12:35:43;;;;;;;13.80;6.18;;;;;;;;;;4982151;28;20962;-62
2023/07/02 12:38:10;;;;;;;13.75;6.20;;;;;;;;;;4985257;28;20418;-63
2023/07/02 12:40:37;;;;;;;15.98;6.50;;;;;;;;;;4986665;28;20489;-63
2023/07/02 12:43:04;;;;;;;13.57;6.30;;;;;;;;;;4987941;28;20429;-63
2023/07/02 12:45:33;;;;;;;13.17;6.63;;;;;;;;;;4980654;28;20418;-62
2023/07/02 12:47:59;;;;;;;13.90;6.90;;;;;;;;;;4985954;28;20434;-64
2023/07/02 12:50:26;;;;;;;14.60;7.00;;;;;;;;;;4982558;28;20431;-62
2023/07/02 12:52:53;;;;;;;13.93;7.28;;;;;;;;;;4983302;28;20429;-63
2023/07/02 12:55:21;;;;;;;14.70;7.03;;;;;;;;;;4980625;28;20952;-64
2023/07/02 12:57:48;;;;;;;13.88;6.38;;;;;;;;;;4978891;28;20422;-64
2023/07/02 13:00:15;;;;;;;11.52;5.95;;;;;;;;;;4983284;28;20477;-64
2023/07/02 13:02:43;;;;;;;12.13;6.47;;;;;;;;;;4979948;28;20859;-63
2023/07/02 13:05:10;;;;;;;13.77;6.35;;;;;;;;;;4980851;28;20486;-62
2023/07/02 13:07:37;;;;;;;14.70;6.43;;;;;;;;;;4982471;28;20488;-63
2023/07/02 13:10:04;;;;;;;15.57;6.72;;;;;;;;;;4989071;28;20418;-63
2023/07/02 13:12:31;;;;;;;14.68;6.78;;;;;;;;;;4987275;28;20477;-63
2023/07/02 13:14:58;;;;;;;15.47;6.97;;;;;;;;;;4979727;28;20885;-63
2023/07/02 13:17:25;;;;;;;14.73;6.85;;;;;;;;;;4984928;28;20416;-63
2023/07/02 13:19:56;;;;;;;13.35;7.03;;;;;;;;;;4985840;28;20422;-63
2023/07/02 13:22:23;;;;;;;16.23;6.70;;;;;;;;;;4986365;28;20428;-63
2023/07/02 13:24:50;;;;;;;13.00;6.97;;;;;;;;;;4979543;28;20435;-63
2023/07/02 13:27:18;;;;;;;12.60;6.50;;;;;;;;;;4979308;28;20436;-62
2023/07/02 13:29:45;;;;;;;13.88;6.63;;;;;;;;;;4981039;28;20426;-66
2023/07/02 13:32:12;;;;;;;12.87;6.60;;;;;;;;;;4979481;28;20462;-64
2023/07/02 13:34:39;;;;;;;12.48;6.90;;;;;;;;;;4980346;28;20420;-67
2023/07/02 13:37:07;;;;;;;13.55;7.00;;;;;;;;;;4982648;28;20506;-65
2023/07/02 13:39:34;;;;;;;12.80;7.10;;;;;;;;;;4987171;28;20426;-68
2023/07/02 13:42:01;;;;;;;16.27;7.00;;;;;;;;;;4982601;28;20418;-66
2023/07/02 13:44:28;;;;;;;16.73;7.10;;;;;;;;;;4980082;28;20424;-64
2023/07/02 13:46:55;;;;;;;14.60;7.00;;;;;;;;;;4984047;28;20426;-64
2023/07/02 13:49:23;;;;;;;15.65;7.70;;;;;;;;;;4983224;28;20807;-64
2023/07/02 13:51:50;;;;;;;14.52;7.25;;;;;;;;;;4983192;28;20922;-64
2023/07/02 13:54:19;;;;;;;14.57;7.68;;;;;;;;;;4983732;28;20528;-64
2023/07/02 13:56:46;;;;;;;13.93;7.20;;;;;;;;;;4985539;28;20430;-64
2023/07/02 13:59:15;;;;;;;15.93;7.90;;;;;;;;;;4984256;28;20414;-65
2023/07/02 14:01:43;;;;;;;16.15;7.72;;;;;;;;;;4978912;28;20431;-64
2023/07/02 14:04:10;;;;;;;15.23;7.72;;;;;;;;;;4987121;28;20425;-64
2023/07/02 14:06:37;;;;;;;15.95;8.10;;;;;;;;;;4983074;28;20944;-65
2023/07/02 14:09:05;;;;;;;15.32;7.88;;;;;;;;;;4982588;28;20477;-65
2023/07/02 14:11:33;;;;;;;15.52;7.65;;;;;;;;;;4980479;28;20427;-65
2023/07/02 14:14:00;;;;;;;14.57;7.80;;;;;;;;;;4986575;28;20899;-65
2023/07/02 14:16:28;;;;;;;15.50;8.02;;;;;;;;;;4980102;28;20452;-63
2023/07/02 14:18:55;;;;;;;15.63;8.07;;;;;;;;;;4984338;28;20466;-63
2023/07/02 14:21:22;;;;;;;17.00;7.82;;;;;;;;;;4976467;28;20984;-63
2023/07/02 14:23:49;;;;;;;15.32;7.93;;;;;;;;;;4985509;28;20430;-65
2023/07/02 14:26:16;;;;;;;15.13;7.63;;;;;;;;;;4981253;28;20974;-64
2023/07/02 14:28:43;;;;;;;15.30;7.53;;;;;;;;;;4983310;28;20477;-64